sensor_id;sensor_type;location;lat;lon;timestamp;temperature;humidity
22706;DHT22;11520;51.198;4.468;2022-09-06T00:00:38;19.40;99.90
22706;DHT22;11520;51.198;4.468;2022-09-06T00:03:04;19.30;99.90
22706;DHT22;11520;51.198;4.468;2022-09-06T00:05:31;19.30;99.90
22706;DHT22;11520;51.198;4.468;2022-09-06T00:08:01;19.40;99.90
22706;DHT22;11520;51.198;4.468;2022-09-06T00:10:28;19.20;99.90
22706;DHT22;11520;51.198;4.468;2022-09-06T00:12:54;19.20;99.90
22706;DHT22;11520;51.198;4.468;2022-09-06T00:15:21;19.10;99.90
22706;DHT22;11520;51.198;4.468;2022-09-06T00:17:47;19.00;99.90
22706;DHT22;11520;51.198;4.468;2022-09-06T00:20:14;19.10;99.90
22706;DHT22;11520;51.198;4.468;2022-09-06T00:22:40;19.30;99.90
22706;DHT22;11520;51.198;4.468;2022-09-06T00:25:07;19.40;99.90
22706;DHT22;11520;51.198;4.468;2022-09-06T00:27:32;19.40;99.90
22706;DHT22;11520;51.198;4.468;2022-09-06T00:29:58;19.40;99.90
22706;DHT22;11520;51.198;4.468;2022-09-06T00:32:24;19.50;99.90
22706;DHT22;11520;51.198;4.468;2022-09-06T00:34:50;19.50;99.90
22706;DHT22;11520;51.198;4.468;2022-09-06T00:37:15;19.60;99.90
22706;DHT22;11520;51.198;4.468;2022-09-06T00:39:41;19.60;99.90
22706;DHT22;11520;51.198;4.468;2022-09-06T00:42:09;19.60;99.90
22706;DHT22;11520;51.198;4.468;2022-09-06T00:44:36;19.60;99.90
22706;DHT22;11520;51.198;4.468;2022-09-06T00:47:02;19.70;99.90
22706;DHT22;11520;51.198;4.468;2022-09-06T00:49:33;19.90;99.90
22706;DHT22;11520;51.198;4.468;2022-09-06T00:52:08;20.00;99.90
22706;DHT22;11520;51.198;4.468;2022-09-06T00:54:35;20.10;99.90
22706;DHT22;11520;51.198;4.468;2022-09-06T00:57:01;20.20;99.90
22706;DHT22;11520;51.198;4.468;2022-09-06T00:59:28;20.20;99.90
22706;DHT22;11520;51.198;4.468;2022-09-06T01:01:55;20.30;99.90
22706;DHT22;11520;51.198;4.468;2022-09-06T01:04:22;20.30;99.90
22706;DHT22;11520;51.198;4.468;2022-09-06T01:31:13;19.70;99.90
22706;DHT22;11520;51.198;4.468;2022-09-06T01:36:26;19.80;99.90
22706;DHT22;11520;51.198;4.468;2022-09-06T01:38:52;19.80;99.90
22706;DHT22;11520;51.198;4.468;2022-09-06T01:41:18;19.70;99.90
22706;DHT22;11520;51.198;4.468;2022-09-06T01:43:49;19.60;99.90
22706;DHT22;11520;51.198;4.468;2022-09-06T01:46:30;19.60;99.90
22706;DHT22;11520;51.198;4.468;2022-09-06T01:49:17;19.50;99.90
22706;DHT22;11520;51.198;4.468;2022-09-06T01:52:15;19.50;99.90
22706;DHT22;11520;51.198;4.468;2022-09-06T01:55:04;19.40;99.90
22706;DHT22;11520;51.198;4.468;2022-09-06T02:07:47;19.30;99.90
22706;DHT22;11520;51.198;4.468;2022-09-06T02:10:20;19.30;99.90
22706;DHT22;11520;51.198;4.468;2022-09-06T02:12:47;19.30;99.90
22706;DHT22;11520;51.198;4.468;2022-09-06T02:15:36;19.30;99.90
22706;DHT22;11520;51.198;4.468;2022-09-06T02:18:12;19.20;99.90
22706;DHT22;11520;51.198;4.468;2022-09-06T02:20:49;19.00;99.90
22706;DHT22;11520;51.198;4.468;2022-09-06T02:23:16;18.90;99.90
22706;DHT22;11520;51.198;4.468;2022-09-06T02:25:49;18.80;99.90
22706;DHT22;11520;51.198;4.468;2022-09-06T02:28:18;18.70;99.90
22706;DHT22;11520;51.198;4.468;2022-09-06T02:30:56;18.60;99.90
22706;DHT22;11520;51.198;4.468;2022-09-06T02:33:25;18.60;99.90
22706;DHT22;11520;51.198;4.468;2022-09-06T02:35:54;18.70;99.90
22706;DHT22;11520;51.198;4.468;2022-09-06T02:38:21;18.70;99.90
22706;DHT22;11520;51.198;4.468;2022-09-06T02:40:49;18.80;99.90
22706;DHT22;11520;51.198;4.468;2022-09-06T02:43:16;18.70;99.90
22706;DHT22;11520;51.198;4.468;2022-09-06T02:45:41;18.70;99.90
22706;DHT22;11520;51.198;4.468;2022-09-06T02:48:07;18.70;99.90
22706;DHT22;11520;51.198;4.468;2022-09-06T02:50:33;18.70;99.90
22706;DHT22;11520;51.198;4.468;2022-09-06T02:53:10;18.70;99.90
22706;DHT22;11520;51.198;4.468;2022-09-06T02:55:38;18.60;99.90
22706;DHT22;11520;51.198;4.468;2022-09-06T02:58:04;18.50;99.90
22706;DHT22;11520;51.198;4.468;2022-09-06T03:00:31;18.40;99.90
22706;DHT22;11520;51.198;4.468;2022-09-06T03:02:58;18.30;99.90
22706;DHT22;11520;51.198;4.468;2022-09-06T03:05:27;18.40;99.90
22706;DHT22;11520;51.198;4.468;2022-09-06T03:07:53;18.50;99.90
22706;DHT22;11520;51.198;4.468;2022-09-06T03:10:20;18.50;99.90
22706;DHT22;11520;51.198;4.468;2022-09-06T03:12:47;18.50;99.90
22706;DHT22;11520;51.198;4.468;2022-09-06T03:15:14;18.40;99.90
22706;DHT22;11520;51.198;4.468;2022-09-06T03:17:41;18.20;99.90
22706;DHT22;11520;51.198;4.468;2022-09-06T03:20:09;18.10;99.90
22706;DHT22;11520;51.198;4.468;2022-09-06T03:22:36;18.10;99.90
22706;DHT22;11520;51.198;4.468;2022-09-06T03:25:02;18.10;99.90
22706;DHT22;11520;51.198;4.468;2022-09-06T03:27:28;18.10;99.90
22706;DHT22;11520;51.198;4.468;2022-09-06T03:29:55;18.20;99.90
22706;DHT22;11520;51.198;4.468;2022-09-06T03:32:21;18.30;99.90
22706;DHT22;11520;51.198;4.468;2022-09-06T03:34:46;18.30;99.90
22706;DHT22;11520;51.198;4.468;2022-09-06T03:37:13;18.30;99.90
22706;DHT22;11520;51.198;4.468;2022-09-06T03:39:39;18.40;99.90
22706;DHT22;11520;51.198;4.468;2022-09-06T03:42:05;18.40;99.90
22706;DHT22;11520;51.198;4.468;2022-09-06T03:44:32;18.40;99.90
22706;DHT22;11520;51.198;4.468;2022-09-06T03:46:58;18.50;99.90
22706;DHT22;11520;51.198;4.468;2022-09-06T03:49:25;18.50;99.90
22706;DHT22;11520;51.198;4.468;2022-09-06T03:51:52;18.40;99.90
22706;DHT22;11520;51.198;4.468;2022-09-06T03:54:18;18.50;99.90
22706;DHT22;11520;51.198;4.468;2022-09-06T03:56:43;18.50;99.90
22706;DHT22;11520;51.198;4.468;2022-09-06T03:59:09;18.50;99.90
22706;DHT22;11520;51.198;4.468;2022-09-06T04:01:34;18.50;99.90
22706;DHT22;11520;51.198;4.468;2022-09-06T04:04:06;18.50;99.90
22706;DHT22;11520;51.198;4.468;2022-09-06T04:06:32;18.40;99.90
22706;DHT22;11520;51.198;4.468;2022-09-06T04:08:58;18.40;99.90
22706;DHT22;11520;51.198;4.468;2022-09-06T04:11:24;18.30;99.90
22706;DHT22;11520;51.198;4.468;2022-09-06T04:13:49;18.30;99.90
22706;DHT22;11520;51.198;4.468;2022-09-06T04:16:15;18.20;99.90
22706;DHT22;11520;51.198;4.468;2022-09-06T04:18:43;18.00;99.90
22706;DHT22;11520;51.198;4.468;2022-09-06T04:21:09;18.00;99.90
22706;DHT22;11520;51.198;4.468;2022-09-06T04:23:35;18.00;99.90
22706;DHT22;11520;51.198;4.468;2022-09-06T04:26:00;18.10;99.90
22706;DHT22;11520;51.198;4.468;2022-09-06T04:28:27;18.10;99.90
22706;DHT22;11520;51.198;4.468;2022-09-06T04:30:53;18.00;99.90
22706;DHT22;11520;51.198;4.468;2022-09-06T04:33:20;18.00;99.90
22706;DHT22;11520;51.198;4.468;2022-09-06T04:35:53;18.10;99.90
22706;DHT22;11520;51.198;4.468;2022-09-06T04:38:19;18.10;99.90
22706;DHT22;11520;51.198;4.468;2022-09-06T04:40:44;18.10;99.90
22706;DHT22;11520;51.198;4.468;2022-09-06T04:43:10;17.90;99.90
22706;DHT22;11520;51.198;4.468;2022-09-06T04:45:36;17.90;99.90
22706;DHT22;11520;51.198;4.468;2022-09-06T04:48:02;18.00;99.90
22706;DHT22;11520;51.198;4.468;2022-09-06T04:50:28;18.00;99.90
22706;DHT22;11520;51.198;4.468;2022-09-06T04:52:53;18.00;99.90
22706;DHT22;11520;51.198;4.468;2022-09-06T04:55:19;18.00;99.90
22706;DHT22;11520;51.198;4.468;2022-09-06T04:57:45;18.00;99.90
22706;DHT22;11520;51.198;4.468;2022-09-06T05:00:13;18.00;99.90
22706;DHT22;11520;51.198;4.468;2022-09-06T05:02:39;18.00;99.90
22706;DHT22;11520;51.198;4.468;2022-09-06T05:05:05;18.00;99.90
22706;DHT22;11520;51.198;4.468;2022-09-06T05:07:31;18.00;99.90
22706;DHT22;11520;51.198;4.468;2022-09-06T05:09:58;17.90;99.90
22706;DHT22;11520;51.198;4.468;2022-09-06T05:12:25;17.90;99.90
22706;DHT22;11520;51.198;4.468;2022-09-06T05:14:50;18.00;99.90
22706;DHT22;11520;51.198;4.468;2022-09-06T05:17:16;18.00;99.90
22706;DHT22;11520;51.198;4.468;2022-09-06T05:19:41;18.00;99.90
22706;DHT22;11520;51.198;4.468;2022-09-06T05:22:07;18.10;99.90
22706;DHT22;11520;51.198;4.468;2022-09-06T05:24:33;17.90;99.90
22706;DHT22;11520;51.198;4.468;2022-09-06T05:26:58;17.80;99.90
22706;DHT22;11520;51.198;4.468;2022-09-06T05:29:28;17.70;99.90
22706;DHT22;11520;51.198;4.468;2022-09-06T05:31:56;17.50;99.90
22706;DHT22;11520;51.198;4.468;2022-09-06T05:34:21;17.50;99.90
22706;DHT22;11520;51.198;4.468;2022-09-06T05:36:47;17.50;99.90
22706;DHT22;11520;51.198;4.468;2022-09-06T05:39:12;17.50;99.90
22706;DHT22;11520;51.198;4.468;2022-09-06T05:41:38;17.40;99.90
22706;DHT22;11520;51.198;4.468;2022-09-06T05:44:04;17.60;99.90
22706;DHT22;11520;51.198;4.468;2022-09-06T05:46:30;17.60;99.90
22706;DHT22;11520;51.198;4.468;2022-09-06T05:48:57;17.70;99.90
22706;DHT22;11520;51.198;4.468;2022-09-06T05:51:29;17.90;99.90
22706;DHT22;11520;51.198;4.468;2022-09-06T05:53:55;17.90;99.90
22706;DHT22;11520;51.198;4.468;2022-09-06T05:56:21;18.10;99.90
22706;DHT22;11520;51.198;4.468;2022-09-06T05:58:48;18.10;99.90
22706;DHT22;11520;51.198;4.468;2022-09-06T06:03:54;18.00;99.90
22706;DHT22;11520;51.198;4.468;2022-09-06T06:06:21;18.00;99.90
22706;DHT22;11520;51.198;4.468;2022-09-06T06:08:47;17.90;99.90
22706;DHT22;11520;51.198;4.468;2022-09-06T06:11:15;17.90;99.90
22706;DHT22;11520;51.198;4.468;2022-09-06T06:13:43;17.90;99.90
22706;DHT22;11520;51.198;4.468;2022-09-06T06:16:14;17.90;99.90
22706;DHT22;11520;51.198;4.468;2022-09-06T06:18:41;17.90;99.90
22706;DHT22;11520;51.198;4.468;2022-09-06T06:23:45;18.10;99.90
22706;DHT22;11520;51.198;4.468;2022-09-06T06:26:14;18.10;99.90
22706;DHT22;11520;51.198;4.468;2022-09-06T06:28:40;18.30;99.90
22706;DHT22;11520;51.198;4.468;2022-09-06T06:31:08;18.30;99.90
22706;DHT22;11520;51.198;4.468;2022-09-06T06:33:34;18.40;99.90
22706;DHT22;11520;51.198;4.468;2022-09-06T06:36:18;18.50;99.90
22706;DHT22;11520;51.198;4.468;2022-09-06T06:38:48;18.70;99.90
22706;DHT22;11520;51.198;4.468;2022-09-06T06:41:17;19.30;99.90
22706;DHT22;11520;51.198;4.468;2022-09-06T06:43:43;20.20;99.90
22706;DHT22;11520;51.198;4.468;2022-09-06T06:46:13;21.60;99.90
22706;DHT22;11520;51.198;4.468;2022-09-06T06:48:40;22.60;99.90
22706;DHT22;11520;51.198;4.468;2022-09-06T06:51:10;23.90;99.90
22706;DHT22;11520;51.198;4.468;2022-09-06T06:53:37;24.50;99.90
22706;DHT22;11520;51.198;4.468;2022-09-06T06:56:21;25.40;99.90
22706;DHT22;11520;51.198;4.468;2022-09-06T06:58:49;26.20;99.90
22706;DHT22;11520;51.198;4.468;2022-09-06T07:01:17;26.50;99.90
22706;DHT22;11520;51.198;4.468;2022-09-06T07:03:44;27.40;99.90
22706;DHT22;11520;51.198;4.468;2022-09-06T07:06:11;28.40;99.90
22706;DHT22;11520;51.198;4.468;2022-09-06T07:08:37;28.70;99.90
22706;DHT22;11520;51.198;4.468;2022-09-06T07:11:04;29.50;99.90
22706;DHT22;11520;51.198;4.468;2022-09-06T07:13:30;29.90;99.90
22706;DHT22;11520;51.198;4.468;2022-09-06T07:16:15;29.30;99.90
22706;DHT22;11520;51.198;4.468;2022-09-06T07:18:42;28.60;99.90
22706;DHT22;11520;51.198;4.468;2022-09-06T07:21:17;29.20;99.90
22706;DHT22;11520;51.198;4.468;2022-09-06T07:23:43;29.40;99.90
22706;DHT22;11520;51.198;4.468;2022-09-06T07:26:17;30.30;99.20
22706;DHT22;11520;51.198;4.468;2022-09-06T07:28:43;30.50;97.60
22706;DHT22;11520;51.198;4.468;2022-09-06T07:31:09;30.70;96.30
22706;DHT22;11520;51.198;4.468;2022-09-06T07:33:36;31.10;97.00
22706;DHT22;11520;51.198;4.468;2022-09-06T07:36:04;31.50;94.60
22706;DHT22;11520;51.198;4.468;2022-09-06T07:38:30;32.30;93.10
22706;DHT22;11520;51.198;4.468;2022-09-06T07:40:59;33.00;90.50
22706;DHT22;11520;51.198;4.468;2022-09-06T07:43:25;32.50;90.40
22706;DHT22;11520;51.198;4.468;2022-09-06T07:46:08;32.20;91.00
22706;DHT22;11520;51.198;4.468;2022-09-06T07:48:36;32.60;90.90
22706;DHT22;11520;51.198;4.468;2022-09-06T07:51:17;32.60;88.60
22706;DHT22;11520;51.198;4.468;2022-09-06T07:53:54;32.50;87.00
22706;DHT22;11520;51.198;4.468;2022-09-06T07:56:21;32.80;88.50
22706;DHT22;11520;51.198;4.468;2022-09-06T07:58:49;32.80;85.60
22706;DHT22;11520;51.198;4.468;2022-09-06T08:04:16;33.40;84.20
22706;DHT22;11520;51.198;4.468;2022-09-06T08:06:45;33.60;81.60
22706;DHT22;11520;51.198;4.468;2022-09-06T08:09:17;34.30;77.40
22706;DHT22;11520;51.198;4.468;2022-09-06T08:11:55;34.30;77.50
22706;DHT22;11520;51.198;4.468;2022-09-06T08:14:21;34.90;72.40
22706;DHT22;11520;51.198;4.468;2022-09-06T08:16:46;34.10;75.50
22706;DHT22;11520;51.198;4.468;2022-09-06T08:19:14;34.60;74.20
22706;DHT22;11520;51.198;4.468;2022-09-06T08:21:40;35.20;70.80
22706;DHT22;11520;51.198;4.468;2022-09-06T08:24:07;36.60;68.40
22706;DHT22;11520;51.198;4.468;2022-09-06T08:26:38;37.50;65.60
22706;DHT22;11520;51.198;4.468;2022-09-06T08:29:05;37.30;62.00
22706;DHT22;11520;51.198;4.468;2022-09-06T08:31:35;36.80;62.80
22706;DHT22;11520;51.198;4.468;2022-09-06T08:34:01;37.00;63.00
22706;DHT22;11520;51.198;4.468;2022-09-06T08:36:27;37.70;61.40
22706;DHT22;11520;51.198;4.468;2022-09-06T08:39:00;38.80;58.60
22706;DHT22;11520;51.198;4.468;2022-09-06T08:41:49;39.70;56.50
22706;DHT22;11520;51.198;4.468;2022-09-06T08:44:28;40.60;53.80
22706;DHT22;11520;51.198;4.468;2022-09-06T08:47:06;40.70;52.60
22706;DHT22;11520;51.198;4.468;2022-09-06T08:49:43;40.70;50.80
22706;DHT22;11520;51.198;4.468;2022-09-06T09:00:30;40.90;50.70
22706;DHT22;11520;51.198;4.468;2022-09-06T09:03:21;41.20;47.60
22706;DHT22;11520;51.198;4.468;2022-09-06T09:05:51;40.70;48.40
22706;DHT22;11520;51.198;4.468;2022-09-06T09:08:23;40.50;48.70
22706;DHT22;11520;51.198;4.468;2022-09-06T09:11:14;40.70;48.40
22706;DHT22;11520;51.198;4.468;2022-09-06T09:13:54;41.50;47.50
22706;DHT22;11520;51.198;4.468;2022-09-06T09:16:23;40.60;47.80
22706;DHT22;11520;51.198;4.468;2022-09-06T09:18:51;41.20;48.60
22706;DHT22;11520;51.198;4.468;2022-09-06T09:21:22;41.10;47.80
22706;DHT22;11520;51.198;4.468;2022-09-06T09:23:57;42.00;47.10
22706;DHT22;11520;51.198;4.468;2022-09-06T09:26:31;42.10;46.30
22706;DHT22;11520;51.198;4.468;2022-09-06T09:31:49;44.20;44.70
22706;DHT22;11520;51.198;4.468;2022-09-06T09:34:27;44.70;42.40
22706;DHT22;11520;51.198;4.468;2022-09-06T09:39:39;45.20;40.90
22706;DHT22;11520;51.198;4.468;2022-09-06T09:42:08;45.10;40.60
22706;DHT22;11520;51.198;4.468;2022-09-06T09:44:41;44.80;39.80
22706;DHT22;11520;51.198;4.468;2022-09-06T09:47:30;43.80;41.00
22706;DHT22;11520;51.198;4.468;2022-09-06T09:49:59;42.70;42.60
22706;DHT22;11520;51.198;4.468;2022-09-06T09:52:30;42.20;43.20
22706;DHT22;11520;51.198;4.468;2022-09-06T09:55:00;42.30;43.80
22706;DHT22;11520;51.198;4.468;2022-09-06T09:57:30;43.00;43.50
22706;DHT22;11520;51.198;4.468;2022-09-06T09:59:58;42.30;42.90
22706;DHT22;11520;51.198;4.468;2022-09-06T10:02:36;42.80;43.40
22706;DHT22;11520;51.198;4.468;2022-09-06T10:07:56;45.10;40.40
22706;DHT22;11520;51.198;4.468;2022-09-06T10:10:24;45.10;39.40
22706;DHT22;11520;51.198;4.468;2022-09-06T10:13:20;45.10;39.60
22706;DHT22;11520;51.198;4.468;2022-09-06T10:15:48;45.90;38.80
22706;DHT22;11520;51.198;4.468;2022-09-06T10:18:27;46.20;37.50
22706;DHT22;11520;51.198;4.468;2022-09-06T10:21:15;46.70;36.50
22706;DHT22;11520;51.198;4.468;2022-09-06T10:29:05;45.30;36.10
22706;DHT22;11520;51.198;4.468;2022-09-06T10:31:45;45.50;35.90
22706;DHT22;11520;51.198;4.468;2022-09-06T10:37:15;45.50;36.30
22706;DHT22;11520;51.198;4.468;2022-09-06T10:45:35;44.60;35.70
22706;DHT22;11520;51.198;4.468;2022-09-06T10:51:00;45.10;35.30
22706;DHT22;11520;51.198;4.468;2022-09-06T10:58:42;47.10;34.00
22706;DHT22;11520;51.198;4.468;2022-09-06T11:01:18;46.80;32.70
22706;DHT22;11520;51.198;4.468;2022-09-06T11:03:49;44.50;34.50
22706;DHT22;11520;51.198;4.468;2022-09-06T11:06:18;44.60;34.80
22706;DHT22;11520;51.198;4.468;2022-09-06T11:09:02;45.20;35.20
22706;DHT22;11520;51.198;4.468;2022-09-06T11:12:09;45.40;33.40
22706;DHT22;11520;51.198;4.468;2022-09-06T11:14:39;44.50;34.70
22706;DHT22;11520;51.198;4.468;2022-09-06T11:17:13;44.90;34.40
22706;DHT22;11520;51.198;4.468;2022-09-06T11:20:01;45.40;33.00
22706;DHT22;11520;51.198;4.468;2022-09-06T11:28:12;44.50;34.00
22706;DHT22;11520;51.198;4.468;2022-09-06T11:30:55;44.50;33.50
22706;DHT22;11520;51.198;4.468;2022-09-06T11:33:25;44.20;33.30
22706;DHT22;11520;51.198;4.468;2022-09-06T11:36:13;43.60;34.40
22706;DHT22;11520;51.198;4.468;2022-09-06T11:38:41;43.90;35.10
22706;DHT22;11520;51.198;4.468;2022-09-06T11:41:14;42.90;35.10
22706;DHT22;11520;51.198;4.468;2022-09-06T11:43:51;43.00;35.30
22706;DHT22;11520;51.198;4.468;2022-09-06T11:49:05;43.10;34.80
22706;DHT22;11520;51.198;4.468;2022-09-06T11:51:37;42.90;34.40
22706;DHT22;11520;51.198;4.468;2022-09-06T11:54:50;42.60;34.80
22706;DHT22;11520;51.198;4.468;2022-09-06T11:57:16;41.90;34.30
22706;DHT22;11520;51.198;4.468;2022-09-06T12:02:32;40.40;37.80
22706;DHT22;11520;51.198;4.468;2022-09-06T12:07:26;41.20;37.40
22706;DHT22;11520;51.198;4.468;2022-09-06T12:09:53;41.30;37.00
22706;DHT22;11520;51.198;4.468;2022-09-06T12:12:40;39.10;38.20
22706;DHT22;11520;51.198;4.468;2022-09-06T12:15:51;39.10;39.60
22706;DHT22;11520;51.198;4.468;2022-09-06T12:21:36;38.80;40.80
22706;DHT22;11520;51.198;4.468;2022-09-06T12:24:03;39.20;39.80
22706;DHT22;11520;51.198;4.468;2022-09-06T12:26:49;39.50;39.30
22706;DHT22;11520;51.198;4.468;2022-09-06T12:29:25;39.70;38.60
22706;DHT22;11520;51.198;4.468;2022-09-06T12:31:55;38.80;39.70
22706;DHT22;11520;51.198;4.468;2022-09-06T12:34:24;38.10;39.80
22706;DHT22;11520;51.198;4.468;2022-09-06T12:36:55;37.70;41.40
22706;DHT22;11520;51.198;4.468;2022-09-06T12:39:21;37.80;41.90
22706;DHT22;11520;51.198;4.468;2022-09-06T12:41:53;37.60;41.60
22706;DHT22;11520;51.198;4.468;2022-09-06T12:44:29;37.50;41.30
22706;DHT22;11520;51.198;4.468;2022-09-06T12:47:02;37.60;40.80
22706;DHT22;11520;51.198;4.468;2022-09-06T12:49:31;36.20;41.20
22706;DHT22;11520;51.198;4.468;2022-09-06T12:52:09;34.10;45.50
22706;DHT22;11520;51.198;4.468;2022-09-06T12:54:41;32.90;47.80
22706;DHT22;11520;51.198;4.468;2022-09-06T12:57:23;32.50;49.80
22706;DHT22;11520;51.198;4.468;2022-09-06T12:59:56;32.60;49.90
22706;DHT22;11520;51.198;4.468;2022-09-06T13:02:42;32.80;49.40
22706;DHT22;11520;51.198;4.468;2022-09-06T13:05:12;32.90;50.10
22706;DHT22;11520;51.198;4.468;2022-09-06T13:07:48;32.30;51.30
22706;DHT22;11520;51.198;4.468;2022-09-06T13:10:17;31.40;53.20
22706;DHT22;11520;51.198;4.468;2022-09-06T13:12:44;31.30;53.30
22706;DHT22;11520;51.198;4.468;2022-09-06T13:15:17;31.30;53.30
22706;DHT22;11520;51.198;4.468;2022-09-06T13:17:44;31.30;53.60
22706;DHT22;11520;51.198;4.468;2022-09-06T13:20:23;31.50;54.80
22706;DHT22;11520;51.198;4.468;2022-09-06T13:22:52;31.70;55.00
22706;DHT22;11520;51.198;4.468;2022-09-06T13:27:46;31.60;54.20
22706;DHT22;11520;51.198;4.468;2022-09-06T13:30:38;31.20;55.30
22706;DHT22;11520;51.198;4.468;2022-09-06T13:33:07;30.90;55.30
22706;DHT22;11520;51.198;4.468;2022-09-06T13:35:36;30.90;56.30
22706;DHT22;11520;51.198;4.468;2022-09-06T13:38:30;30.80;56.40
22706;DHT22;11520;51.198;4.468;2022-09-06T13:40:59;31.00;56.10
22706;DHT22;11520;51.198;4.468;2022-09-06T13:43:27;31.20;56.20
22706;DHT22;11520;51.198;4.468;2022-09-06T13:48:30;31.10;55.50
22706;DHT22;11520;51.198;4.468;2022-09-06T13:51:06;31.40;57.10
22706;DHT22;11520;51.198;4.468;2022-09-06T13:53:33;31.70;56.60
22706;DHT22;11520;51.198;4.468;2022-09-06T13:55:58;32.00;55.40
22706;DHT22;11520;51.198;4.468;2022-09-06T13:58:25;31.80;55.40
22706;DHT22;11520;51.198;4.468;2022-09-06T14:00:52;31.80;55.40
22706;DHT22;11520;51.198;4.468;2022-09-06T14:03:23;31.70;55.60
22706;DHT22;11520;51.198;4.468;2022-09-06T14:05:52;31.60;56.30
22706;DHT22;11520;51.198;4.468;2022-09-06T14:08:17;31.60;55.00
22706;DHT22;11520;51.198;4.468;2022-09-06T14:10:43;31.40;55.20
22706;DHT22;11520;51.198;4.468;2022-09-06T14:13:13;31.30;55.30
22706;DHT22;11520;51.198;4.468;2022-09-06T14:15:39;30.90;56.70
22706;DHT22;11520;51.198;4.468;2022-09-06T14:18:05;30.00;59.30
22706;DHT22;11520;51.198;4.468;2022-09-06T14:20:31;30.10;60.40
22706;DHT22;11520;51.198;4.468;2022-09-06T14:22:58;30.10;60.40
22706;DHT22;11520;51.198;4.468;2022-09-06T14:25:24;30.00;60.60
22706;DHT22;11520;51.198;4.468;2022-09-06T14:27:49;30.20;60.60
22706;DHT22;11520;51.198;4.468;2022-09-06T14:30:15;30.40;59.60
22706;DHT22;11520;51.198;4.468;2022-09-06T14:32:42;30.40;59.60
22706;DHT22;11520;51.198;4.468;2022-09-06T14:35:09;30.40;59.60
22706;DHT22;11520;51.198;4.468;2022-09-06T14:37:41;30.40;59.10
22706;DHT22;11520;51.198;4.468;2022-09-06T14:40:07;30.40;60.20
22706;DHT22;11520;51.198;4.468;2022-09-06T14:42:35;30.40;61.20
22706;DHT22;11520;51.198;4.468;2022-09-06T14:45:02;30.00;63.60
22706;DHT22;11520;51.198;4.468;2022-09-06T14:47:28;29.70;64.30
22706;DHT22;11520;51.198;4.468;2022-09-06T14:49:59;29.80;65.20
22706;DHT22;11520;51.198;4.468;2022-09-06T14:52:26;30.20;64.20
22706;DHT22;11520;51.198;4.468;2022-09-06T14:54:51;30.20;64.60
22706;DHT22;11520;51.198;4.468;2022-09-06T14:57:18;30.50;64.10
22706;DHT22;11520;51.198;4.468;2022-09-06T14:59:44;30.20;64.60
22706;DHT22;11520;51.198;4.468;2022-09-06T15:02:09;30.30;65.50
22706;DHT22;11520;51.198;4.468;2022-09-06T15:04:36;30.30;64.40
22706;DHT22;11520;51.198;4.468;2022-09-06T15:07:04;30.40;64.40
22706;DHT22;11520;51.198;4.468;2022-09-06T15:09:30;30.00;64.80
22706;DHT22;11520;51.198;4.468;2022-09-06T15:11:55;30.00;65.20
22706;DHT22;11520;51.198;4.468;2022-09-06T15:14:26;30.20;65.00
22706;DHT22;11520;51.198;4.468;2022-09-06T15:16:57;30.00;64.90
22706;DHT22;11520;51.198;4.468;2022-09-06T15:19:26;29.60;65.10
22706;DHT22;11520;51.198;4.468;2022-09-06T15:21:52;29.30;66.70
22706;DHT22;11520;51.198;4.468;2022-09-06T15:24:18;29.50;67.00
22706;DHT22;11520;51.198;4.468;2022-09-06T15:26:45;29.60;65.90
22706;DHT22;11520;51.198;4.468;2022-09-06T15:29:12;29.70;66.40
22706;DHT22;11520;51.198;4.468;2022-09-06T15:31:40;29.60;66.40
22706;DHT22;11520;51.198;4.468;2022-09-06T15:34:06;29.60;66.80
22706;DHT22;11520;51.198;4.468;2022-09-06T15:36:33;29.60;67.00
22706;DHT22;11520;51.198;4.468;2022-09-06T15:39:00;29.60;66.50
22706;DHT22;11520;51.198;4.468;2022-09-06T15:41:28;29.50;66.20
22706;DHT22;11520;51.198;4.468;2022-09-06T15:43:58;29.40;67.40
22706;DHT22;11520;51.198;4.468;2022-09-06T15:46:51;29.30;68.90
22706;DHT22;11520;51.198;4.468;2022-09-06T15:49:20;29.40;68.50
22706;DHT22;11520;51.198;4.468;2022-09-06T15:51:47;29.40;69.40
22706;DHT22;11520;51.198;4.468;2022-09-06T15:54:16;29.20;67.70
22706;DHT22;11520;51.198;4.468;2022-09-06T15:56:45;29.10;69.00
22706;DHT22;11520;51.198;4.468;2022-09-06T15:59:12;29.20;71.60
22706;DHT22;11520;51.198;4.468;2022-09-06T16:01:38;29.10;71.00
22706;DHT22;11520;51.198;4.468;2022-09-06T16:04:04;29.00;72.10
22706;DHT22;11520;51.198;4.468;2022-09-06T16:06:39;29.10;72.70
22706;DHT22;11520;51.198;4.468;2022-09-06T16:09:11;29.10;70.80
22706;DHT22;11520;51.198;4.468;2022-09-06T16:11:38;28.80;71.70
22706;DHT22;11520;51.198;4.468;2022-09-06T16:14:08;28.60;73.40
22706;DHT22;11520;51.198;4.468;2022-09-06T16:16:35;28.40;74.00
22706;DHT22;11520;51.198;4.468;2022-09-06T16:19:00;28.30;75.30
22706;DHT22;11520;51.198;4.468;2022-09-06T16:21:28;28.30;75.40
22706;DHT22;11520;51.198;4.468;2022-09-06T16:24:16;28.40;75.00
22706;DHT22;11520;51.198;4.468;2022-09-06T16:26:44;28.50;74.40
22706;DHT22;11520;51.198;4.468;2022-09-06T16:29:12;28.40;74.20
22706;DHT22;11520;51.198;4.468;2022-09-06T16:31:38;28.40;74.30
22706;DHT22;11520;51.198;4.468;2022-09-06T16:34:05;28.50;75.00
22706;DHT22;11520;51.198;4.468;2022-09-06T16:36:32;28.70;73.80
22706;DHT22;11520;51.198;4.468;2022-09-06T16:38:57;28.90;72.70
22706;DHT22;11520;51.198;4.468;2022-09-06T16:41:41;29.10;71.60
22706;DHT22;11520;51.198;4.468;2022-09-06T16:44:08;29.10;71.40
22706;DHT22;11520;51.198;4.468;2022-09-06T16:46:34;29.30;71.20
22706;DHT22;11520;51.198;4.468;2022-09-06T16:49:01;29.40;70.80
22706;DHT22;11520;51.198;4.468;2022-09-06T16:51:28;29.50;70.10
22706;DHT22;11520;51.198;4.468;2022-09-06T16:53:55;29.60;69.50
22706;DHT22;11520;51.198;4.468;2022-09-06T16:56:24;29.60;69.50
22706;DHT22;11520;51.198;4.468;2022-09-06T16:58:55;29.60;69.30
22706;DHT22;11520;51.198;4.468;2022-09-06T17:01:22;29.30;69.90
22706;DHT22;11520;51.198;4.468;2022-09-06T17:03:49;28.70;71.00
22706;DHT22;11520;51.198;4.468;2022-09-06T17:06:15;28.40;73.60
22706;DHT22;11520;51.198;4.468;2022-09-06T17:08:42;28.40;74.90
22706;DHT22;11520;51.198;4.468;2022-09-06T17:11:13;28.40;75.40
22706;DHT22;11520;51.198;4.468;2022-09-06T17:13:40;28.30;76.40
22706;DHT22;11520;51.198;4.468;2022-09-06T17:16:06;28.30;77.50
22706;DHT22;11520;51.198;4.468;2022-09-06T17:18:51;28.30;77.90
22706;DHT22;11520;51.198;4.468;2022-09-06T17:21:18;28.20;79.10
22706;DHT22;11520;51.198;4.468;2022-09-06T17:23:45;28.20;79.60
22706;DHT22;11520;51.198;4.468;2022-09-06T17:26:11;28.30;80.30
22706;DHT22;11520;51.198;4.468;2022-09-06T17:28:37;28.20;81.00
22706;DHT22;11520;51.198;4.468;2022-09-06T17:31:05;28.20;81.50
22706;DHT22;11520;51.198;4.468;2022-09-06T17:33:32;28.20;82.00